sensor_id;sensor_type;location;lat;lon;timestamp;pressure;altitude;pressure_sealevel;temperature
45850;BMP180;10739;52.198;20.908;2023-04-24T00:00:41;99500.00;;;16.20
45850;BMP180;10739;52.198;20.908;2023-04-24T00:03:07;99505.00;;;16.20
45850;BMP180;10739;52.198;20.908;2023-04-24T00:05:34;99507.00;;;16.10
45850;BMP180;10739;52.198;20.908;2023-04-24T00:08:00;99507.00;;;16.10
45850;BMP180;10739;52.198;20.908;2023-04-24T00:10:26;99500.00;;;16.10
45850;BMP180;10739;52.198;20.908;2023-04-24T00:12:53;99501.00;;;16.00
45850;BMP180;10739;52.198;20.908;2023-04-24T00:15:19;99497.00;;;16.00
45850;BMP180;10739;52.198;20.908;2023-04-24T00:17:45;99486.00;;;15.90
45850;BMP180;10739;52.198;20.908;2023-04-24T00:20:12;99482.00;;;16.00
45850;BMP180;10739;52.198;20.908;2023-04-24T00:22:39;99477.00;;;15.90
45850;BMP180;10739;52.198;20.908;2023-04-24T00:25:06;99483.00;;;15.80
45850;BMP180;10739;52.198;20.908;2023-04-24T00:27:32;99487.00;;;15.80
45850;BMP180;10739;52.198;20.908;2023-04-24T00:29:58;99485.00;;;15.90
45850;BMP180;10739;52.198;20.908;2023-04-24T00:32:25;99491.00;;;15.90
45850;BMP180;10739;52.198;20.908;2023-04-24T00:34:51;99496.00;;;15.90
45850;BMP180;10739;52.198;20.908;2023-04-24T00:37:17;99496.00;;;15.80
45850;BMP180;10739;52.198;20.908;2023-04-24T00:39:43;99498.00;;;15.80
45850;BMP180;10739;52.198;20.908;2023-04-24T00:42:10;99490.00;;;15.60
45850;BMP180;10739;52.198;20.908;2023-04-24T00:44:37;99490.00;;;15.60
45850;BMP180;10739;52.198;20.908;2023-04-24T00:47:03;99480.00;;;15.70
45850;BMP180;10739;52.198;20.908;2023-04-24T00:49:30;99486.00;;;15.10
45850;BMP180;10739;52.198;20.908;2023-04-24T00:51:56;99491.00;;;15.20
45850;BMP180;10739;52.198;20.908;2023-04-24T00:54:22;99489.00;;;15.40
45850;BMP180;10739;52.198;20.908;2023-04-24T00:56:49;99489.00;;;15.40
45850;BMP180;10739;52.198;20.908;2023-04-24T00:59:17;99486.00;;;15.40
45850;BMP180;10739;52.198;20.908;2023-04-24T01:01:45;99480.00;;;15.50
45850;BMP180;10739;52.198;20.908;2023-04-24T01:04:12;99479.00;;;15.60
45850;BMP180;10739;52.198;20.908;2023-04-24T01:06:39;99480.00;;;15.50
45850;BMP180;10739;52.198;20.908;2023-04-24T01:09:07;99476.00;;;15.70
45850;BMP180;10739;52.198;20.908;2023-04-24T01:11:37;99476.00;;;15.60
45850;BMP180;10739;52.198;20.908;2023-04-24T01:14:04;99475.00;;;15.60
45850;BMP180;10739;52.198;20.908;2023-04-24T01:16:30;99484.00;;;15.40
45850;BMP180;10739;52.198;20.908;2023-04-24T01:18:56;99468.00;;;15.50
45850;BMP180;10739;52.198;20.908;2023-04-24T01:21:26;99471.00;;;15.60
45850;BMP180;10739;52.198;20.908;2023-04-24T01:23:55;99473.00;;;15.40
45850;BMP180;10739;52.198;20.908;2023-04-24T01:26:23;99482.00;;;15.40
45850;BMP180;10739;52.198;20.908;2023-04-24T01:28:51;99474.00;;;15.50
45850;BMP180;10739;52.198;20.908;2023-04-24T01:31:18;99469.00;;;15.50
45850;BMP180;10739;52.198;20.908;2023-04-24T01:33:45;99463.00;;;15.40
45850;BMP180;10739;52.198;20.908;2023-04-24T01:36:11;99465.00;;;15.30
45850;BMP180;10739;52.198;20.908;2023-04-24T01:38:38;99463.00;;;15.30
45850;BMP180;10739;52.198;20.908;2023-04-24T01:41:04;99463.00;;;15.20
45850;BMP180;10739;52.198;20.908;2023-04-24T01:43:31;99458.00;;;15.20
45850;BMP180;10739;52.198;20.908;2023-04-24T01:45:58;99457.00;;;15.20
45850;BMP180;10739;52.198;20.908;2023-04-24T01:48:24;99451.00;;;15.20
45850;BMP180;10739;52.198;20.908;2023-04-24T01:50:50;99445.00;;;15.20
45850;BMP180;10739;52.198;20.908;2023-04-24T01:53:16;99446.00;;;15.20
45850;BMP180;10739;52.198;20.908;2023-04-24T01:55:43;99440.00;;;15.10
45850;BMP180;10739;52.198;20.908;2023-04-24T01:58:09;99442.00;;;15.00
45850;BMP180;10739;52.198;20.908;2023-04-24T02:00:35;99433.00;;;14.70
45850;BMP180;10739;52.198;20.908;2023-04-24T02:03:02;99436.00;;;14.70
45850;BMP180;10739;52.198;20.908;2023-04-24T02:05:28;99430.00;;;14.80
45850;BMP180;10739;52.198;20.908;2023-04-24T02:07:54;99431.00;;;15.00
45850;BMP180;10739;52.198;20.908;2023-04-24T02:10:21;99433.00;;;15.00
45850;BMP180;10739;52.198;20.908;2023-04-24T02:12:47;99440.00;;;15.00
45850;BMP180;10739;52.198;20.908;2023-04-24T02:15:13;99438.00;;;15.00
45850;BMP180;10739;52.198;20.908;2023-04-24T02:17:39;99444.00;;;14.90
45850;BMP180;10739;52.198;20.908;2023-04-24T02:20:07;99432.00;;;15.10
45850;BMP180;10739;52.198;20.908;2023-04-24T02:22:33;99437.00;;;15.00
45850;BMP180;10739;52.198;20.908;2023-04-24T02:25:00;99435.00;;;15.00
45850;BMP180;10739;52.198;20.908;2023-04-24T02:27:26;99437.00;;;15.10
45850;BMP180;10739;52.198;20.908;2023-04-24T02:29:53;99424.00;;;15.00
45850;BMP180;10739;52.198;20.908;2023-04-24T02:32:19;99423.00;;;14.90
45850;BMP180;10739;52.198;20.908;2023-04-24T02:34:45;99428.00;;;14.90
45850;BMP180;10739;52.198;20.908;2023-04-24T02:37:11;99416.00;;;14.90
45850;BMP180;10739;52.198;20.908;2023-04-24T02:39:38;99419.00;;;14.70
45850;BMP180;10739;52.198;20.908;2023-04-24T02:42:04;99419.00;;;14.70
45850;BMP180;10739;52.198;20.908;2023-04-24T02:44:31;99414.00;;;14.70
45850;BMP180;10739;52.198;20.908;2023-04-24T02:46:57;99411.00;;;14.70
45850;BMP180;10739;52.198;20.908;2023-04-24T02:49:23;99423.00;;;14.70
45850;BMP180;10739;52.198;20.908;2023-04-24T02:51:50;99417.00;;;14.60
45850;BMP180;10739;52.198;20.908;2023-04-24T02:54:16;99414.00;;;14.60
45850;BMP180;10739;52.198;20.908;2023-04-24T02:56:42;99412.00;;;14.60
45850;BMP180;10739;52.198;20.908;2023-04-24T02:59:09;99413.00;;;14.60
45850;BMP180;10739;52.198;20.908;2023-04-24T03:01:36;99416.00;;;14.50
45850;BMP180;10739;52.198;20.908;2023-04-24T03:04:02;99402.00;;;14.50
45850;BMP180;10739;52.198;20.908;2023-04-24T03:06:29;99404.00;;;14.50
45850;BMP180;10739;52.198;20.908;2023-04-24T03:08:57;99409.00;;;14.50
45850;BMP180;10739;52.198;20.908;2023-04-24T03:11:23;99407.00;;;14.60
45850;BMP180;10739;52.198;20.908;2023-04-24T03:13:49;99406.00;;;14.60
45850;BMP180;10739;52.198;20.908;2023-04-24T03:16:16;99404.00;;;14.50
45850;BMP180;10739;52.198;20.908;2023-04-24T03:18:42;99400.00;;;14.50
45850;BMP180;10739;52.198;20.908;2023-04-24T03:21:08;99405.00;;;14.50
45850;BMP180;10739;52.198;20.908;2023-04-24T03:23:35;99410.00;;;14.50
45850;BMP180;10739;52.198;20.908;2023-04-24T03:26:01;99405.00;;;14.60
45850;BMP180;10739;52.198;20.908;2023-04-24T03:28:28;99407.00;;;14.70
45850;BMP180;10739;52.198;20.908;2023-04-24T03:30:54;99410.00;;;14.70
45850;BMP180;10739;52.198;20.908;2023-04-24T03:33:20;99409.00;;;14.60
45850;BMP180;10739;52.198;20.908;2023-04-24T03:35:47;99408.00;;;14.60
45850;BMP180;10739;52.198;20.908;2023-04-24T03:38:13;99409.00;;;14.80
45850;BMP180;10739;52.198;20.908;2023-04-24T03:40:39;99413.00;;;14.90
45850;BMP180;10739;52.198;20.908;2023-04-24T03:43:06;99419.00;;;14.50
45850;BMP180;10739;52.198;20.908;2023-04-24T03:45:32;99414.00;;;14.50
45850;BMP180;10739;52.198;20.908;2023-04-24T03:47:58;99417.00;;;14.40
45850;BMP180;10739;52.198;20.908;2023-04-24T03:50:24;99423.00;;;14.50
45850;BMP180;10739;52.198;20.908;2023-04-24T03:52:52;99408.00;;;14.50
45850;BMP180;10739;52.198;20.908;2023-04-24T03:55:19;99403.00;;;14.50
45850;BMP180;10739;52.198;20.908;2023-04-24T03:57:45;99413.00;;;14.40
45850;BMP180;10739;52.198;20.908;2023-04-24T04:00:12;99412.00;;;14.20
45850;BMP180;10739;52.198;20.908;2023-04-24T04:02:39;99412.00;;;14.50
45850;BMP180;10739;52.198;20.908;2023-04-24T04:05:05;99411.00;;;14.60
45850;BMP180;10739;52.198;20.908;2023-04-24T04:07:32;99407.00;;;14.70
45850;BMP180;10739;52.198;20.908;2023-04-24T04:09:58;99416.00;;;14.40
45850;BMP180;10739;52.198;20.908;2023-04-24T04:12:24;99429.00;;;14.50
45850;BMP180;10739;52.198;20.908;2023-04-24T04:14:51;99417.00;;;14.80
45850;BMP180;10739;52.198;20.908;2023-04-24T04:17:17;99419.00;;;14.60
45850;BMP180;10739;52.198;20.908;2023-04-24T04:19:43;99413.00;;;14.80
45850;BMP180;10739;52.198;20.908;2023-04-24T04:22:10;99426.00;;;14.40
45850;BMP180;10739;52.198;20.908;2023-04-24T04:24:37;99419.00;;;14.70
45850;BMP180;10739;52.198;20.908;2023-04-24T04:27:07;99420.00;;;14.70
45850;BMP180;10739;52.198;20.908;2023-04-24T04:29:34;99426.00;;;14.30
45850;BMP180;10739;52.198;20.908;2023-04-24T04:32:02;99420.00;;;14.80
45850;BMP180;10739;52.198;20.908;2023-04-24T04:34:28;99418.00;;;14.80
45850;BMP180;10739;52.198;20.908;2023-04-24T04:36:55;99412.00;;;14.90
45850;BMP180;10739;52.198;20.908;2023-04-24T04:39:22;99411.00;;;15.00
45850;BMP180;10739;52.198;20.908;2023-04-24T04:41:48;99415.00;;;15.00
45850;BMP180;10739;52.198;20.908;2023-04-24T04:44:14;99413.00;;;15.20
45850;BMP180;10739;52.198;20.908;2023-04-24T04:46:41;99409.00;;;15.30
45850;BMP180;10739;52.198;20.908;2023-04-24T04:49:08;99405.00;;;15.10
45850;BMP180;10739;52.198;20.908;2023-04-24T04:51:34;99407.00;;;15.70
45850;BMP180;10739;52.198;20.908;2023-04-24T04:54:01;99402.00;;;15.60
45850;BMP180;10739;52.198;20.908;2023-04-24T04:56:28;99408.00;;;15.70
45850;BMP180;10739;52.198;20.908;2023-04-24T04:58:54;99401.00;;;15.70
45850;BMP180;10739;52.198;20.908;2023-04-24T05:01:20;99405.00;;;15.40
45850;BMP180;10739;52.198;20.908;2023-04-24T05:03:49;99406.00;;;15.80
45850;BMP180;10739;52.198;20.908;2023-04-24T05:06:15;99403.00;;;15.90
45850;BMP180;10739;52.198;20.908;2023-04-24T05:08:41;99401.00;;;15.60
45850;BMP180;10739;52.198;20.908;2023-04-24T05:11:08;99405.00;;;15.90
45850;BMP180;10739;52.198;20.908;2023-04-24T05:13:34;99408.00;;;16.10
45850;BMP180;10739;52.198;20.908;2023-04-24T05:16:01;99400.00;;;16.20
45850;BMP180;10739;52.198;20.908;2023-04-24T05:18:27;99406.00;;;16.30
45850;BMP180;10739;52.198;20.908;2023-04-24T05:20:53;99406.00;;;16.20
45850;BMP180;10739;52.198;20.908;2023-04-24T05:23:19;99401.00;;;16.30
45850;BMP180;10739;52.198;20.908;2023-04-24T05:25:46;99396.00;;;16.60
45850;BMP180;10739;52.198;20.908;2023-04-24T05:28:12;99393.00;;;17.00
45850;BMP180;10739;52.198;20.908;2023-04-24T05:30:39;99397.00;;;16.90
45850;BMP180;10739;52.198;20.908;2023-04-24T05:33:05;99396.00;;;17.20
45850;BMP180;10739;52.198;20.908;2023-04-24T05:35:31;99388.00;;;17.30
45850;BMP180;10739;52.198;20.908;2023-04-24T05:37:58;99390.00;;;17.40
45850;BMP180;10739;52.198;20.908;2023-04-24T05:40:24;99387.00;;;17.30
45850;BMP180;10739;52.198;20.908;2023-04-24T05:42:50;99388.00;;;17.10
45850;BMP180;10739;52.198;20.908;2023-04-24T05:45:17;99386.00;;;17.20
45850;BMP180;10739;52.198;20.908;2023-04-24T05:47:43;99389.00;;;17.20
45850;BMP180;10739;52.198;20.908;2023-04-24T05:50:11;99379.00;;;17.30
45850;BMP180;10739;52.198;20.908;2023-04-24T05:52:37;99380.00;;;17.50
45850;BMP180;10739;52.198;20.908;2023-04-24T05:55:04;99382.00;;;17.50
45850;BMP180;10739;52.198;20.908;2023-04-24T05:57:31;99383.00;;;17.60
45850;BMP180;10739;52.198;20.908;2023-04-24T05:59:57;99384.00;;;17.70
45850;BMP180;10739;52.198;20.908;2023-04-24T06:02:23;99380.00;;;17.70
45850;BMP180;10739;52.198;20.908;2023-04-24T06:04:50;99381.00;;;17.80
45850;BMP180;10739;52.198;20.908;2023-04-24T06:07:16;99384.00;;;17.60
45850;BMP180;10739;52.198;20.908;2023-04-24T06:09:43;99382.00;;;18.00
45850;BMP180;10739;52.198;20.908;2023-04-24T06:12:09;99386.00;;;18.20
45850;BMP180;10739;52.198;20.908;2023-04-24T06:14:35;99383.00;;;18.00
45850;BMP180;10739;52.198;20.908;2023-04-24T06:17:01;99377.00;;;18.40
45850;BMP180;10739;52.198;20.908;2023-04-24T06:19:28;99374.00;;;18.30
45850;BMP180;10739;52.198;20.908;2023-04-24T06:21:54;99375.00;;;18.80
45850;BMP180;10739;52.198;20.908;2023-04-24T06:24:20;99368.00;;;19.30
45850;BMP180;10739;52.198;20.908;2023-04-24T06:26:46;99372.00;;;19.30
45850;BMP180;10739;52.198;20.908;2023-04-24T06:29:13;99365.00;;;19.50
45850;BMP180;10739;52.198;20.908;2023-04-24T06:31:39;99371.00;;;19.70
45850;BMP180;10739;52.198;20.908;2023-04-24T06:34:05;99374.00;;;20.00
45850;BMP180;10739;52.198;20.908;2023-04-24T06:36:32;99366.00;;;20.10
45850;BMP180;10739;52.198;20.908;2023-04-24T06:39:00;99371.00;;;20.10
45850;BMP180;10739;52.198;20.908;2023-04-24T06:41:27;99356.00;;;20.30
45850;BMP180;10739;52.198;20.908;2023-04-24T06:43:54;99364.00;;;20.20
45850;BMP180;10739;52.198;20.908;2023-04-24T06:46:20;99368.00;;;20.10
45850;BMP180;10739;52.198;20.908;2023-04-24T06:48:50;99355.00;;;20.30
45850;BMP180;10739;52.198;20.908;2023-04-24T06:51:16;99361.00;;;20.60
45850;BMP180;10739;52.198;20.908;2023-04-24T06:53:44;99355.00;;;20.60
45850;BMP180;10739;52.198;20.908;2023-04-24T06:56:10;99362.00;;;20.80
45850;BMP180;10739;52.198;20.908;2023-04-24T06:58:36;99352.00;;;21.10
45850;BMP180;10739;52.198;20.908;2023-04-24T07:01:02;99354.00;;;21.10
45850;BMP180;10739;52.198;20.908;2023-04-24T07:03:29;99357.00;;;21.20
45850;BMP180;10739;52.198;20.908;2023-04-24T07:05:55;99355.00;;;20.90
45850;BMP180;10739;52.198;20.908;2023-04-24T07:08:21;99363.00;;;21.20
45850;BMP180;10739;52.198;20.908;2023-04-24T07:10:49;99356.00;;;21.70
45850;BMP180;10739;52.198;20.908;2023-04-24T07:13:15;99355.00;;;21.90
45850;BMP180;10739;52.198;20.908;2023-04-24T07:15:41;99361.00;;;21.40
45850;BMP180;10739;52.198;20.908;2023-04-24T07:18:08;99363.00;;;21.30
45850;BMP180;10739;52.198;20.908;2023-04-24T07:20:34;99357.00;;;21.70
45850;BMP180;10739;52.198;20.908;2023-04-24T07:23:02;99353.00;;;21.90
45850;BMP180;10739;52.198;20.908;2023-04-24T07:25:28;99352.00;;;21.80
45850;BMP180;10739;52.198;20.908;2023-04-24T07:27:54;99359.00;;;21.90
45850;BMP180;10739;52.198;20.908;2023-04-24T07:30:21;99355.00;;;21.90
45850;BMP180;10739;52.198;20.908;2023-04-24T07:32:47;99352.00;;;21.90
45850;BMP180;10739;52.198;20.908;2023-04-24T07:35:13;99354.00;;;21.90
45850;BMP180;10739;52.198;20.908;2023-04-24T07:37:39;99364.00;;;22.00
45850;BMP180;10739;52.198;20.908;2023-04-24T07:40:07;99359.00;;;21.90
45850;BMP180;10739;52.198;20.908;2023-04-24T07:42:33;99358.00;;;22.40
45850;BMP180;10739;52.198;20.908;2023-04-24T07:45:00;99353.00;;;22.40
45850;BMP180;10739;52.198;20.908;2023-04-24T07:47:26;99363.00;;;22.40
45850;BMP180;10739;52.198;20.908;2023-04-24T07:49:53;99361.00;;;22.10
45850;BMP180;10739;52.198;20.908;2023-04-24T07:52:20;99360.00;;;22.00
45850;BMP180;10739;52.198;20.908;2023-04-24T07:54:46;99366.00;;;22.30
45850;BMP180;10739;52.198;20.908;2023-04-24T07:57:13;99365.00;;;21.40
45850;BMP180;10739;52.198;20.908;2023-04-24T07:59:39;99363.00;;;20.90
45850;BMP180;10739;52.198;20.908;2023-04-24T08:02:06;99365.00;;;21.60
45850;BMP180;10739;52.198;20.908;2023-04-24T08:04:32;99363.00;;;21.10
45850;BMP180;10739;52.198;20.908;2023-04-24T08:06:59;99361.00;;;21.70
45850;BMP180;10739;52.198;20.908;2023-04-24T08:09:25;99360.00;;;22.20
45850;BMP180;10739;52.198;20.908;2023-04-24T08:11:51;99359.00;;;22.50
45850;BMP180;10739;52.198;20.908;2023-04-24T08:14:19;99358.00;;;22.20
45850;BMP180;10739;52.198;20.908;2023-04-24T08:16:46;99364.00;;;22.00
45850;BMP180;10739;52.198;20.908;2023-04-24T08:19:12;99356.00;;;22.10
45850;BMP180;10739;52.198;20.908;2023-04-24T08:21:39;99363.00;;;22.30
45850;BMP180;10739;52.198;20.908;2023-04-24T08:24:05;99365.00;;;22.20
45850;BMP180;10739;52.198;20.908;2023-04-24T08:26:33;99361.00;;;22.50
45850;BMP180;10739;52.198;20.908;2023-04-24T08:29:00;99356.00;;;22.20
45850;BMP180;10739;52.198;20.908;2023-04-24T08:31:26;99359.00;;;22.30
45850;BMP180;10739;52.198;20.908;2023-04-24T08:33:52;99359.00;;;22.60
45850;BMP180;10739;52.198;20.908;2023-04-24T08:36:19;99355.00;;;22.70
45850;BMP180;10739;52.198;20.908;2023-04-24T08:38:45;99357.00;;;23.00
45850;BMP180;10739;52.198;20.908;2023-04-24T08:41:14;99363.00;;;23.30
45850;BMP180;10739;52.198;20.908;2023-04-24T08:43:42;99354.00;;;23.40
45850;BMP180;10739;52.198;20.908;2023-04-24T08:46:10;99360.00;;;23.20
45850;BMP180;10739;52.198;20.908;2023-04-24T08:48:39;99361.00;;;23.30
45850;BMP180;10739;52.198;20.908;2023-04-24T08:51:09;99361.00;;;23.30
45850;BMP180;10739;52.198;20.908;2023-04-24T08:53:36;99349.00;;;23.80
45850;BMP180;10739;52.198;20.908;2023-04-24T08:56:03;99359.00;;;23.30
45850;BMP180;10739;52.198;20.908;2023-04-24T08:58:31;99352.00;;;23.20
45850;BMP180;10739;52.198;20.908;2023-04-24T09:01:05;99356.00;;;23.20
45850;BMP180;10739;52.198;20.908;2023-04-24T09:03:34;99354.00;;;24.00
45850;BMP180;10739;52.198;20.908;2023-04-24T09:06:02;99351.00;;;24.30
45850;BMP180;10739;52.198;20.908;2023-04-24T09:08:30;99352.00;;;24.30
45850;BMP180;10739;52.198;20.908;2023-04-24T09:10:57;99347.00;;;24.40
45850;BMP180;10739;52.198;20.908;2023-04-24T09:13:25;99356.00;;;24.60
45850;BMP180;10739;52.198;20.908;2023-04-24T09:15:51;99350.00;;;24.40
45850;BMP180;10739;52.198;20.908;2023-04-24T09:18:19;99341.00;;;24.40
45850;BMP180;10739;52.198;20.908;2023-04-24T09:23:31;99342.00;;;24.50
45850;BMP180;10739;52.198;20.908;2023-04-24T09:25:59;99341.00;;;25.30
45850;BMP180;10739;52.198;20.908;2023-04-24T09:28:38;99333.00;;;25.00
45850;BMP180;10739;52.198;20.908;2023-04-24T09:31:12;99334.00;;;25.40
45850;BMP180;10739;52.198;20.908;2023-04-24T09:34:13;99331.00;;;26.90
45850;BMP180;10739;52.198;20.908;2023-04-24T09:36:44;99328.00;;;27.10
45850;BMP180;10739;52.198;20.908;2023-04-24T09:39:13;99321.00;;;28.10
45850;BMP180;10739;52.198;20.908;2023-04-24T09:41:50;99326.00;;;28.80
45850;BMP180;10739;52.198;20.908;2023-04-24T09:44:22;99326.00;;;29.30
45850;BMP180;10739;52.198;20.908;2023-04-24T09:46:58;99323.00;;;30.00
45850;BMP180;10739;52.198;20.908;2023-04-24T09:49:31;99315.00;;;29.00
45850;BMP180;10739;52.198;20.908;2023-04-24T09:52:07;99317.00;;;30.70
45850;BMP180;10739;52.198;20.908;2023-04-24T09:54:34;99308.00;;;32.00
45850;BMP180;10739;52.198;20.908;2023-04-24T09:57:03;99310.00;;;32.70
45850;BMP180;10739;52.198;20.908;2023-04-24T09:59:30;99305.00;;;32.30
45850;BMP180;10739;52.198;20.908;2023-04-24T10:01:56;99312.00;;;32.00
45850;BMP180;10739;52.198;20.908;2023-04-24T10:04:28;99305.00;;;32.00
45850;BMP180;10739;52.198;20.908;2023-04-24T10:06:58;99304.00;;;32.00
45850;BMP180;10739;52.198;20.908;2023-04-24T10:09:32;99291.00;;;31.10
45850;BMP180;10739;52.198;20.908;2023-04-24T10:12:00;99309.00;;;30.60
45850;BMP180;10739;52.198;20.908;2023-04-24T10:14:29;99298.00;;;31.60
45850;BMP180;10739;52.198;20.908;2023-04-24T10:17:02;99294.00;;;32.80
45850;BMP180;10739;52.198;20.908;2023-04-24T10:19:30;99289.00;;;30.20
45850;BMP180;10739;52.198;20.908;2023-04-24T10:21:58;99284.00;;;31.80
45850;BMP180;10739;52.198;20.908;2023-04-24T10:24:24;99280.00;;;32.30
45850;BMP180;10739;52.198;20.908;2023-04-24T10:26:51;99284.00;;;33.50
45850;BMP180;10739;52.198;20.908;2023-04-24T10:29:19;99289.00;;;33.80
45850;BMP180;10739;52.198;20.908;2023-04-24T10:31:45;99288.00;;;30.70
45850;BMP180;10739;52.198;20.908;2023-04-24T10:34:14;99285.00;;;30.80
45850;BMP180;10739;52.198;20.908;2023-04-24T10:36:52;99282.00;;;30.30
45850;BMP180;10739;52.198;20.908;2023-04-24T10:39:20;99283.00;;;29.30
45850;BMP180;10739;52.198;20.908;2023-04-24T10:41:49;99278.00;;;29.40
45850;BMP180;10739;52.198;20.908;2023-04-24T10:44:16;99279.00;;;29.30
45850;BMP180;10739;52.198;20.908;2023-04-24T10:46:46;99270.00;;;29.30
45850;BMP180;10739;52.198;20.908;2023-04-24T10:49:29;99270.00;;;29.90
45850;BMP180;10739;52.198;20.908;2023-04-24T10:52:02;99266.00;;;30.30
45850;BMP180;10739;52.198;20.908;2023-04-24T10:59:45;99256.00;;;32.20
45850;BMP180;10739;52.198;20.908;2023-04-24T11:02:15;99259.00;;;31.00
45850;BMP180;10739;52.198;20.908;2023-04-24T11:04:42;99257.00;;;31.30
45850;BMP180;10739;52.198;20.908;2023-04-24T11:07:12;99249.00;;;31.50
45850;BMP180;10739;52.198;20.908;2023-04-24T11:09:38;99258.00;;;31.80
45850;BMP180;10739;52.198;20.908;2023-04-24T11:12:11;99261.00;;;32.00
45850;BMP180;10739;52.198;20.908;2023-04-24T11:15:01;99256.00;;;32.70
45850;BMP180;10739;52.198;20.908;2023-04-24T11:17:36;99245.00;;;33.50
45850;BMP180;10739;52.198;20.908;2023-04-24T11:20:09;99254.00;;;31.30
45850;BMP180;10739;52.198;20.908;2023-04-24T11:22:39;99245.00;;;30.40
45850;BMP180;10739;52.198;20.908;2023-04-24T11:25:11;99249.00;;;31.30
45850;BMP180;10739;52.198;20.908;2023-04-24T11:27:44;99255.00;;;32.80
45850;BMP180;10739;52.198;20.908;2023-04-24T11:30:20;99252.00;;;32.90
45850;BMP180;10739;52.198;20.908;2023-04-24T11:32:51;99243.00;;;32.60
45850;BMP180;10739;52.198;20.908;2023-04-24T11:35:20;99236.00;;;30.20
45850;BMP180;10739;52.198;20.908;2023-04-24T11:37:54;99246.00;;;30.90
45850;BMP180;10739;52.198;20.908;2023-04-24T11:40:23;99244.00;;;30.40
45850;BMP180;10739;52.198;20.908;2023-04-24T11:42:53;99244.00;;;30.70
45850;BMP180;10739;52.198;20.908;2023-04-24T11:45:24;99236.00;;;31.60
45850;BMP180;10739;52.198;20.908;2023-04-24T11:47:51;99237.00;;;32.00
45850;BMP180;10739;52.198;20.908;2023-04-24T11:50:20;99236.00;;;31.10
45850;BMP180;10739;52.198;20.908;2023-04-24T11:52:49;99237.00;;;31.70
45850;BMP180;10739;52.198;20.908;2023-04-24T11:57:50;99232.00;;;33.00
45850;BMP180;10739;52.198;20.908;2023-04-24T12:00:29;99234.00;;;32.10
45850;BMP180;10739;52.198;20.908;2023-04-24T12:03:10;99230.00;;;31.30
45850;BMP180;10739;52.198;20.908;2023-04-24T12:05:38;99229.00;;;29.80
45850;BMP180;10739;52.198;20.908;2023-04-24T12:08:04;99223.00;;;30.90
45850;BMP180;10739;52.198;20.908;2023-04-24T12:10:32;99229.00;;;31.00
45850;BMP180;10739;52.198;20.908;2023-04-24T12:12:59;99209.00;;;32.00
45850;BMP180;10739;52.198;20.908;2023-04-24T12:15:27;99205.00;;;32.60
45850;BMP180;10739;52.198;20.908;2023-04-24T12:17:55;99213.00;;;31.10
45850;BMP180;10739;52.198;20.908;2023-04-24T12:20:32;99211.00;;;29.40
45850;BMP180;10739;52.198;20.908;2023-04-24T12:23:00;99209.00;;;28.90
45850;BMP180;10739;52.198;20.908;2023-04-24T12:25:32;99208.00;;;27.50
45850;BMP180;10739;52.198;20.908;2023-04-24T12:30:50;99209.00;;;26.80
45850;BMP180;10739;52.198;20.908;2023-04-24T12:33:21;99203.00;;;26.60
45850;BMP180;10739;52.198;20.908;2023-04-24T12:35:51;99207.00;;;26.60
45850;BMP180;10739;52.198;20.908;2023-04-24T12:38:24;99207.00;;;26.70
45850;BMP180;10739;52.198;20.908;2023-04-24T12:41:30;99232.00;;;25.00
45850;BMP180;10739;52.198;20.908;2023-04-24T12:43:57;99233.00;;;23.90
45850;BMP180;10739;52.198;20.908;2023-04-24T12:46:23;99248.00;;;22.70
45850;BMP180;10739;52.198;20.908;2023-04-24T12:48:49;99270.00;;;21.90
45850;BMP180;10739;52.198;20.908;2023-04-24T12:51:16;99265.00;;;21.90
45850;BMP180;10739;52.198;20.908;2023-04-24T12:53:42;99268.00;;;21.50
45850;BMP180;10739;52.198;20.908;2023-04-24T12:56:08;99261.00;;;21.40
45850;BMP180;10739;52.198;20.908;2023-04-24T12:58:35;99259.00;;;21.50
45850;BMP180;10739;52.198;20.908;2023-04-24T13:01:01;99244.00;;;21.20
45850;BMP180;10739;52.198;20.908;2023-04-24T13:03:28;99248.00;;;21.30
45850;BMP180;10739;52.198;20.908;2023-04-24T13:05:54;99247.00;;;21.50
45850;BMP180;10739;52.198;20.908;2023-04-24T13:08:20;99256.00;;;21.30
45850;BMP180;10739;52.198;20.908;2023-04-24T13:10:51;99246.00;;;21.40
45850;BMP180;10739;52.198;20.908;2023-04-24T13:13:20;99230.00;;;21.40
45850;BMP180;10739;52.198;20.908;2023-04-24T13:15:48;99229.00;;;22.20
45850;BMP180;10739;52.198;20.908;2023-04-24T13:18:16;99235.00;;;22.30
45850;BMP180;10739;52.198;20.908;2023-04-24T13:20:44;99220.00;;;22.70
45850;BMP180;10739;52.198;20.908;2023-04-24T13:23:11;99221.00;;;23.20
45850;BMP180;10739;52.198;20.908;2023-04-24T13:25:39;99201.00;;;24.20
45850;BMP180;10739;52.198;20.908;2023-04-24T13:28:06;99201.00;;;23.70
45850;BMP180;10739;52.198;20.908;2023-04-24T13:30:32;99213.00;;;24.00
45850;BMP180;10739;52.198;20.908;2023-04-24T13:32:59;99204.00;;;24.90
45850;BMP180;10739;52.198;20.908;2023-04-24T13:35:25;99215.00;;;24.30
45850;BMP180;10739;52.198;20.908;2023-04-24T13:37:51;99204.00;;;24.70
45850;BMP180;10739;52.198;20.908;2023-04-24T13:40:18;99202.00;;;24.80
45850;BMP180;10739;52.198;20.908;2023-04-24T13:42:50;99204.00;;;25.40
45850;BMP180;10739;52.198;20.908;2023-04-24T13:45:21;99214.00;;;25.60
45850;BMP180;10739;52.198;20.908;2023-04-24T13:47:49;99198.00;;;25.20
45850;BMP180;10739;52.198;20.908;2023-04-24T13:50:15;99207.00;;;25.20
45850;BMP180;10739;52.198;20.908;2023-04-24T13:52:41;99201.00;;;25.70
45850;BMP180;10739;52.198;20.908;2023-04-24T13:55:08;99198.00;;;26.40
45850;BMP180;10739;52.198;20.908;2023-04-24T13:57:35;99212.00;;;26.40
45850;BMP180;10739;52.198;20.908;2023-04-24T14:00:01;99206.00;;;26.40
45850;BMP180;10739;52.198;20.908;2023-04-24T14:02:30;99208.00;;;26.60
45850;BMP180;10739;52.198;20.908;2023-04-24T14:04:57;99198.00;;;26.00
45850;BMP180;10739;52.198;20.908;2023-04-24T14:07:24;99193.00;;;26.40
45850;BMP180;10739;52.198;20.908;2023-04-24T14:09:51;99190.00;;;25.40
45850;BMP180;10739;52.198;20.908;2023-04-24T14:12:18;99184.00;;;25.40